Time;durP1;ratioP1;P1;durP2;ratioP2;P2;SDS_P1;SDS_P2;PMS_P1;PMS_P2;Temp;Humidity;BMP_temperature;BMP_pressure;BME280_temperature;BME280_humidity;BME280_pressure;Samples;Min_cycle;Max_cycle;Signal;HPM_P1;HPM_P2
2022/10/30 00:00:50;;;;;;;22.33;6.95;;;;;;;15.97;100.00;101377.63;5069029;28;20188;-80
2022/10/30 00:03:17;;;;;;;20.70;7.07;;;;;;;15.90;100.00;101376.44;5102120;28;20034;-80
2022/10/30 00:05:45;;;;;;;19.13;7.15;;;;;;;15.91;100.00;101375.44;5083016;28;20035;-80
2022/10/30 00:08:13;;;;;;;12.25;6.15;;;;;;;15.82;100.00;101372.66;5091699;28;20031;-80
2022/10/30 00:10:39;;;;;;;18.20;6.68;;;;;;;15.82;100.00;101368.00;5066255;28;20081;-80
2022/10/30 00:13:05;;;;;;;16.92;6.25;;;;;;;15.77;100.00;101381.34;5093380;28;20418;-79
2022/10/30 00:15:30;;;;;;;25.13;7.00;;;;;;;15.73;100.00;101377.13;5074694;28;20020;-80
2022/10/30 00:17:56;;;;;;;25.98;6.88;;;;;;;15.62;100.00;101378.97;5079286;28;20028;-80
2022/10/30 00:20:21;;;;;;;18.73;6.78;;;;;;;15.66;100.00;101382.34;5074869;28;20097;-81
2022/10/30 00:22:47;;;;;;;22.58;7.28;;;;;;;15.69;100.00;101370.13;5086068;28;20414;-80
2022/10/30 00:25:12;;;;;;;17.83;6.93;;;;;;;15.70;100.00;101381.03;5065734;28;20028;-81
2022/10/30 00:27:37;;;;;;;14.60;5.97;;;;;;;15.58;100.00;101371.13;5070130;28;20039;-81
2022/10/30 00:30:03;;;;;;;18.42;6.90;;;;;;;15.65;100.00;101376.97;5068785;28;20031;-80
2022/10/30 00:32:29;;;;;;;19.05;6.30;;;;;;;15.60;100.00;101385.66;5090911;28;20032;-81
2022/10/30 00:34:54;;;;;;;13.88;6.72;;;;;;;15.58;100.00;101374.75;5055358;28;20067;-81
2022/10/30 00:37:20;;;;;;;20.50;6.50;;;;;;;15.53;100.00;101378.97;5086626;28;20038;-81
2022/10/30 00:39:45;;;;;;;16.77;5.90;;;;;;;15.61;100.00;101376.38;5085069;28;20043;-80
2022/10/30 00:42:13;;;;;;;31.30;6.72;;;;;;;15.49;100.00;101370.06;5085382;28;20028;-81
2022/10/30 00:44:51;;;;;;;20.45;7.00;;;;;;;15.49;100.00;101372.84;5084109;28;20054;-81
2022/10/30 00:47:26;;;;;;;20.63;6.78;;;;;;;15.44;100.00;101372.38;5101328;28;20039;-81
2022/10/30 00:50:06;;;;;;;20.00;6.82;;;;;;;15.41;100.00;101356.09;5102043;28;20043;-80
2022/10/30 00:52:42;;;;;;;23.33;6.53;;;;;;;15.43;100.00;101359.63;5100628;28;20043;-80
2022/10/30 00:55:14;;;;;;;23.77;7.60;;;;;;;15.43;100.00;101356.84;5080538;28;20028;-80
2022/10/30 00:57:41;;;;;;;19.00;7.00;;;;;;;15.39;100.00;101363.66;5081214;28;20039;-80
2022/10/30 01:00:08;;;;;;;17.85;7.05;;;;;;;15.29;100.00;101369.16;5076784;28;20036;-81
2022/10/30 01:02:34;;;;;;;20.00;6.90;;;;;;;15.24;100.00;101363.19;5077438;28;20031;-81
2022/10/30 01:05:00;;;;;;;25.48;7.43;;;;;;;15.29;100.00;101360.88;5083164;28;20053;-80
2022/10/30 01:07:26;;;;;;;18.30;7.15;;;;;;;15.33;100.00;101367.88;5072877;28;20032;-81
2022/10/30 01:09:51;;;;;;;21.58;7.50;;;;;;;15.24;100.00;101355.75;5082842;28;20058;-80
2022/10/30 01:12:16;;;;;;;24.58;7.85;;;;;;;15.30;100.00;101367.25;5068833;28;20028;-80
2022/10/30 01:14:52;;;;;;;19.65;6.82;;;;;;;15.27;100.00;101357.38;5075012;28;20539;-81
2022/10/30 01:17:20;;;;;;;22.05;7.05;;;;;;;15.16;100.00;101358.34;5085015;28;20039;-81
2022/10/30 01:20:05;;;;;;;24.02;7.45;;;;;;;15.14;100.00;101363.13;5089742;28;20035;-81
2022/10/30 01:22:50;;;;;;;23.13;7.53;;;;;;;15.11;100.00;101359.78;5088882;28;20059;-81
2022/10/30 01:25:37;;;;;;;21.90;7.43;;;;;;;15.11;100.00;101359.78;5088853;28;20894;-80
2022/10/30 01:28:30;;;;;;;19.65;7.78;;;;;;;15.02;100.00;101365.13;5098778;28;20039;-80
2022/10/30 01:31:22;;;;;;;21.70;7.30;;;;;;;14.99;100.00;101356.25;5098506;28;20093;-80
2022/10/30 01:34:02;;;;;;;22.15;7.53;;;;;;;15.02;100.00;101364.22;5056561;28;20059;-79
2022/10/30 01:36:35;;;;;;;21.95;8.25;;;;;;;14.84;100.00;101353.00;5091250;28;20859;-79
2022/10/30 01:39:06;;;;;;;27.80;8.00;;;;;;;14.87;100.00;101367.38;5087897;28;20100;-78
2022/10/30 01:41:32;;;;;;;21.88;8.68;;;;;;;14.92;100.00;101369.72;5086962;28;20019;-79
2022/10/30 01:44:04;;;;;;;23.73;8.10;;;;;;;14.85;100.00;101377.63;5068379;28;20503;-79
2022/10/30 01:46:54;;;;;;;18.50;7.82;;;;;;;14.82;100.00;101383.47;5098355;28;20345;-79
2022/10/30 01:49:58;;;;;;;19.50;7.80;;;;;;;14.81;100.00;101384.47;5121187;28;20473;-79
2022/10/30 01:52:42;;;;;;;22.67;8.23;;;;;;;14.85;100.00;101382.28;5052768;28;20048;-80
2022/10/30 01:55:11;;;;;;;17.77;6.80;;;;;;;14.89;100.00;101381.03;5094291;28;20035;-78
2022/10/30 01:58:04;;;;;;;17.65;7.68;;;;;;;14.83;100.00;101379.66;5114339;28;20177;-79
2022/10/30 02:00:34;;;;;;;21.35;8.77;;;;;;;14.82;100.00;101375.19;5107448;28;20047;-80
2022/10/30 02:03:00;;;;;;;21.17;7.88;;;;;;;14.87;100.00;101378.41;5088345;28;20475;-80
2022/10/30 02:05:38;;;;;;;23.08;7.53;;;;;;;14.72;100.00;101360.44;5092128;28;20092;-79
2022/10/30 02:08:04;;;;;;;18.83;7.25;;;;;;;14.78;100.00;101372.84;5108214;28;20035;-79
2022/10/30 02:10:30;;;;;;;29.02;8.27;;;;;;;14.76;100.00;101363.81;5040581;28;20036;-81
2022/10/30 02:12:56;;;;;;;21.75;7.07;;;;;;;14.73;100.00;101367.72;5080050;28;20053;-80
2022/10/30 02:15:21;;;;;;;24.65;7.18;;;;;;;14.67;100.00;101373.78;5088875;28;20773;-80
2022/10/30 02:17:47;;;;;;;18.67;7.50;;;;;;;14.80;100.00;101379.94;5104758;28;20077;-81
2022/10/30 02:20:15;;;;;;;25.33;7.28;;;;;;;14.50;100.00;101350.44;5072069;28;20043;-80
2022/10/30 02:22:41;;;;;;;16.58;7.90;;;;;;;14.66;100.00;101380.31;5099601;28;20042;-80
2022/10/30 02:25:06;;;;;;;20.60;7.35;;;;;;;14.59;100.00;101377.19;5068747;28;20044;-80
2022/10/30 02:27:32;;;;;;;19.13;6.97;;;;;;;14.50;100.00;101389.88;5054837;28;20120;-80
2022/10/30 02:29:59;;;;;;;18.88;7.10;;;;;;;14.52;100.00;101375.97;5067084;28;20036;-80
2022/10/30 02:32:24;;;;;;;22.92;7.78;;;;;;;14.48;100.00;101386.38;5104099;28;20027;-79
2022/10/30 02:34:50;;;;;;;20.08;8.52;;;;;;;14.46;100.00;101385.66;5080847;28;20044;-79
2022/10/30 02:37:15;;;;;;;24.27;7.30;;;;;;;14.46;100.00;101390.28;5101835;28;20034;-79
2022/10/30 02:39:41;;;;;;;20.10;7.50;;;;;;;14.49;100.00;101390.00;5085863;28;20057;-80
2022/10/30 02:42:06;;;;;;;17.77;7.00;;;;;;;14.57;100.00;101394.84;5068579;28;20062;-80
2022/10/30 02:44:32;;;;;;;22.05;7.53;;;;;;;14.50;100.00;101389.88;5052898;28;20505;-79
2022/10/30 02:46:57;;;;;;;16.40;7.65;;;;;;;14.57;100.00;101387.44;5085582;28;20027;-79
2022/10/30 02:49:22;;;;;;;20.70;7.47;;;;;;;14.53;100.00;101386.84;5083719;28;20451;-80
2022/10/30 02:51:48;;;;;;;21.05;8.30;;;;;;;14.48;100.00;101383.63;5088852;28;20057;-80
2022/10/30 02:54:13;;;;;;;17.10;8.35;;;;;;;14.45;100.00;101386.66;5069842;28;20085;-81
2022/10/30 02:56:39;;;;;;;22.48;8.90;;;;;;;14.48;100.00;101378.13;5069295;28;20113;-81
2022/10/30 02:59:05;;;;;;;19.40;7.75;;;;;;;14.45;100.00;101375.63;5085883;28;20047;-81
2022/10/30 03:01:30;;;;;;;25.05;8.35;;;;;;;14.50;100.00;101395.38;5084839;28;20040;-81
2022/10/30 03:03:56;;;;;;;21.13;8.05;;;;;;;14.27;100.00;101369.84;5080132;28;20043;-80
2022/10/30 03:06:21;;;;;;;18.30;8.23;;;;;;;14.34;100.00;101389.47;5088435;28;20035;-81
2022/10/30 03:08:47;;;;;;;15.70;7.88;;;;;;;14.40;100.00;101385.31;5102040;28;20092;-81
2022/10/30 03:11:17;;;;;;;21.60;7.75;;;;;;;14.36;100.00;101384.69;5062605;28;20032;-81
2022/10/30 03:13:44;;;;;;;22.15;7.93;;;;;;;14.30;100.00;101388.84;5105153;28;20103;-81
2022/10/30 03:16:16;;;;;;;21.38;7.82;;;;;;;14.30;100.00;101391.63;5087232;28;20071;-80
2022/10/30 03:18:42;;;;;;;28.27;8.98;;;;;;;14.22;100.00;101393.28;5081504;28;20024;-80
2022/10/30 03:21:09;;;;;;;26.65;8.13;;;;;;;14.27;100.00;101391.88;5085721;28;20046;-81
2022/10/30 03:23:35;;;;;;;20.05;8.93;;;;;;;14.23;100.00;101395.03;5087640;28;20122;-80
2022/10/30 03:26:01;;;;;;;19.90;8.75;;;;;;;14.22;100.00;101393.28;5069937;28;20081;-80
2022/10/30 03:28:28;;;;;;;16.95;8.10;;;;;;;14.17;100.00;101390.94;5083426;28;20043;-80
2022/10/30 03:31:05;;;;;;;19.23;8.20;;;;;;;14.19;100.00;101390.78;5101565;28;20063;-80
2022/10/30 03:33:31;;;;;;;19.13;8.45;;;;;;;14.15;100.00;101399.31;5084024;28;20102;-79
2022/10/30 03:35:57;;;;;;;15.00;8.13;;;;;;;14.24;100.00;101394.03;5059458;28;20040;-79
2022/10/30 03:38:23;;;;;;;31.98;8.63;;;;;;;14.24;100.00;101391.28;5099417;28;20502;-80
2022/10/30 03:40:48;;;;;;;17.00;7.88;;;;;;;14.22;100.00;101387.78;5072507;28;20111;-80
2022/10/30 03:43:14;;;;;;;22.33;8.57;;;;;;;14.11;100.00;101385.94;5085528;28;20130;-80
2022/10/30 03:45:39;;;;;;;20.42;8.43;;;;;;;14.08;100.00;101380.69;5085072;28;20031;-80
2022/10/30 03:48:05;;;;;;;21.02;7.90;;;;;;;14.17;100.00;101385.41;5048433;28;20256;-80
2022/10/30 03:50:31;;;;;;;15.68;8.02;;;;;;;14.18;100.00;101386.28;5068077;28;20031;-80
2022/10/30 03:52:57;;;;;;;24.30;8.35;;;;;;;14.15;100.00;101398.47;5102024;28;20027;-80
2022/10/30 03:55:24;;;;;;;20.25;8.20;;;;;;;14.04;100.00;101388.34;5082917;28;20028;-80
2022/10/30 03:57:49;;;;;;;17.85;9.05;;;;;;;13.96;100.00;101388.13;5066625;28;20056;-80
2022/10/30 04:00:17;;;;;;;17.00;7.60;;;;;;;13.96;100.00;101377.97;5088507;28;20051;-80
2022/10/30 04:02:50;;;;;;;27.77;8.05;;;;;;;13.98;100.00;101375.09;5083534;28;20024;-79
2022/10/30 04:05:17;;;;;;;22.10;9.10;;;;;;;14.03;100.00;101372.81;5082568;28;20046;-80
2022/10/30 04:07:43;;;;;;;19.75;8.70;;;;;;;13.89;100.00;101371.25;5067683;28;20418;-79
2022/10/30 04:10:09;;;;;;;28.60;8.65;;;;;;;13.93;100.00;101374.63;5117496;28;20034;-80
2022/10/30 04:12:34;;;;;;;20.05;8.75;;;;;;;13.80;100.00;101377.53;5084118;28;20032;-80
2022/10/30 04:15:00;;;;;;;18.05;8.05;;;;;;;13.64;100.00;101383.44;5101234;28;20073;-80
2022/10/30 04:17:26;;;;;;;24.02;8.98;;;;;;;13.55;100.00;101393.34;5058790;28;20372;-81
2022/10/30 04:19:51;;;;;;;17.50;7.97;;;;;;;13.52;100.00;101378.97;5084022;28;20028;-81
2022/10/30 04:22:17;;;;;;;17.52;8.55;;;;;;;13.46;100.00;101376.72;5051904;28;20046;-81
2022/10/30 04:24:43;;;;;;;21.23;8.40;;;;;;;13.56;100.00;101372.19;5064904;28;20060;-81
2022/10/30 04:27:09;;;;;;;26.33;8.73;;;;;;;13.70;100.00;101376.56;5072962;28;20039;-81
2022/10/30 04:29:36;;;;;;;21.92;9.18;;;;;;;13.62;100.00;101373.59;5100828;28;20081;-81
2022/10/30 04:32:01;;;;;;;23.60;8.40;;;;;;;13.47;100.00;101382.09;5103497;28;20031;-81
2022/10/30 04:34:27;;;;;;;18.23;8.68;;;;;;;13.50;100.00;101383.75;5068071;28;20479;-81
2022/10/30 04:36:52;;;;;;;22.20;9.10;;;;;;;13.46;100.00;101374.84;5084373;28;20060;-81
2022/10/30 04:39:18;;;;;;;22.90;9.45;;;;;;;13.50;100.00;101381.84;5068366;28;20032;-80
2022/10/30 04:41:43;;;;;;;22.85;8.95;;;;;;;13.47;100.00;101378.50;5085361;28;20134;-81
2022/10/30 04:44:08;;;;;;;20.48;9.20;;;;;;;13.55;100.00;101375.97;5084536;28;20031;-81
2022/10/30 04:46:34;;;;;;;20.70;8.77;;;;;;;13.60;100.00;101393.84;5087090;28;20114;-79
2022/10/30 04:48:59;;;;;;;22.85;8.25;;;;;;;13.52;100.00;101387.25;5104442;28;20046;-80
2022/10/30 04:51:25;;;;;;;26.73;8.52;;;;;;;13.55;100.00;101389.75;5104769;28;20097;-81
2022/10/30 04:53:50;;;;;;;21.25;8.40;;;;;;;13.41;100.00;101391.75;5071120;28;20494;-80
2022/10/30 04:56:15;;;;;;;23.95;10.18;;;;;;;13.31;100.00;101382.47;5101119;28;20063;-80
2022/10/30 04:58:41;;;;;;;23.45;9.02;;;;;;;13.27;100.00;101380.97;5087553;28;20055;-81
2022/10/30 05:01:07;;;;;;;20.55;8.27;;;;;;;13.26;100.00;101381.97;5078118;28;20502;-80
2022/10/30 05:03:33;;;;;;;26.67;8.68;;;;;;;13.28;100.00;101368.09;5062886;28;20032;-80
2022/10/30 05:06:05;;;;;;;19.25;8.77;;;;;;;13.15;100.00;101381.97;5098821;28;20036;-80
2022/10/30 05:08:31;;;;;;;17.75;8.00;;;;;;;13.12;100.00;101380.38;5087926;28;20139;-81
2022/10/30 05:10:57;;;;;;;20.90;8.52;;;;;;;13.15;100.00;101380.13;5103570;28;20025;-80
2022/10/30 05:13:23;;;;;;;29.30;8.40;;;;;;;13.15;100.00;101382.88;5087133;28;20126;-80
2022/10/30 05:15:48;;;;;;;15.70;8.27;;;;;;;13.12;100.00;101376.72;5102618;28;20489;-80
2022/10/30 05:18:13;;;;;;;26.90;8.43;;;;;;;12.92;100.00;101387.50;5065917;28;20043;-80
2022/10/30 05:20:39;;;;;;;22.83;9.15;;;;;;;12.82;100.00;101376.34;5047139;28;20032;-80
2022/10/30 05:23:05;;;;;;;28.02;9.02;;;;;;;12.90;100.00;101374.84;5104370;28;20036;-80
2022/10/30 05:25:30;;;;;;;18.73;8.35;;;;;;;12.95;100.00;101365.22;5069420;28;20035;-80
2022/10/30 05:27:58;;;;;;;18.27;8.40;;;;;;;12.97;100.00;101366.00;5068692;28;20109;-81
2022/10/30 05:30:23;;;;;;;24.15;8.75;;;;;;;13.10;100.00;101373.22;5087918;28;20118;-80
2022/10/30 05:32:49;;;;;;;27.13;8.65;;;;;;;12.82;100.00;101365.38;5067712;28;20085;-80
2022/10/30 05:35:14;;;;;;;24.33;10.00;;;;;;;12.76;100.00;101370.47;5078355;28;21663;-80
2022/10/30 05:37:40;;;;;;;20.33;9.45;;;;;;;12.69;100.00;101356.34;5065400;28;20038;-80
2022/10/30 05:40:05;;;;;;;20.40;10.10;;;;;;;12.58;100.00;101362.72;5080875;28;20028;-80
2022/10/30 05:42:34;;;;;;;22.80;10.30;;;;;;;12.56;100.00;101364.72;5071147;28;20073;-80
2022/10/30 05:44:59;;;;;;;27.17;10.18;;;;;;;12.47;100.00;101346.19;5068737;28;20024;-80
2022/10/30 05:47:24;;;;;;;24.00;10.07;;;;;;;12.60;100.00;101359.84;5100345;28;20517;-81
2022/10/30 05:49:50;;;;;;;23.42;9.48;;;;;;;12.53;100.00;101361.31;5068331;28;20114;-81
2022/10/30 05:52:15;;;;;;;21.85;9.95;;;;;;;12.47;100.00;101365.41;5100962;28;20035;-81
2022/10/30 05:54:41;;;;;;;23.77;9.52;;;;;;;12.52;100.00;101357.69;5078773;28;20091;-81
2022/10/30 05:57:06;;;;;;;24.67;10.23;;;;;;;12.47;100.00;101359.94;5053907;28;20030;-81
2022/10/30 05:59:32;;;;;;;17.35;9.93;;;;;;;12.31;100.00;101374.88;5088083;28;20467;-81
2022/10/30 06:01:57;;;;;;;26.92;10.30;;;;;;;12.33;100.00;101380.25;5068945;28;20032;-82
2022/10/30 06:04:23;;;;;;;24.08;9.27;;;;;;;12.29;100.00;101376.84;5053695;28;20402;-82
2022/10/30 06:06:48;;;;;;;25.33;10.02;;;;;;;12.34;100.00;101373.75;5048367;28;20043;-82
2022/10/30 06:09:14;;;;;;;19.15;8.68;;;;;;;12.22;100.00;101367.34;5075123;28;20028;-83
2022/10/30 06:11:39;;;;;;;23.27;9.10;;;;;;;12.19;100.00;101369.47;5086471;28;20471;-82
2022/10/30 06:14:04;;;;;;;21.45;9.70;;;;;;;12.21;100.00;101353.75;5049571;28;20047;-82
2022/10/30 06:16:30;;;;;;;20.25;9.48;;;;;;;12.20;100.00;101363.84;5069331;28;20043;-81
2022/10/30 06:18:55;;;;;;;24.30;10.25;;;;;;;11.99;100.00;101354.56;5079454;28;20415;-83
2022/10/30 06:21:21;;;;;;;22.13;10.60;;;;;;;11.97;100.00;101379.38;5055928;28;20043;-83
2022/10/30 06:23:47;;;;;;;23.67;10.52;;;;;;;11.89;100.00;101385.41;5087235;28;20077;-84
2022/10/30 06:26:12;;;;;;;21.30;10.60;;;;;;;11.82;100.00;101386.84;5086867;28;20019;-84
2022/10/30 06:28:38;;;;;;;26.40;10.30;;;;;;;11.84;100.00;101382.13;5102887;28;20071;-84
2022/10/30 06:31:05;;;;;;;21.67;9.57;;;;;;;11.89;100.00;101384.53;5080387;28;20032;-83
2022/10/30 06:33:30;;;;;;;22.70;9.95;;;;;;;11.81;100.00;101359.53;5070658;28;20044;-84
2022/10/30 06:35:56;;;;;;;30.17;10.88;;;;;;;11.89;100.00;101371.69;5066183;28;20493;-82
2022/10/30 06:38:21;;;;;;;21.75;9.35;;;;;;;11.81;100.00;101385.09;5067548;28;20042;-82
2022/10/30 06:40:48;;;;;;;24.25;9.90;;;;;;;11.75;100.00;101382.81;5069749;28;20038;-83
2022/10/30 06:43:13;;;;;;;23.42;10.32;;;;;;;11.85;100.00;101375.63;5103734;28;20390;-83
2022/10/30 06:45:39;;;;;;;22.52;9.82;;;;;;;11.88;100.00;101380.03;5050935;28;20036;-83
2022/10/30 06:48:05;;;;;;;23.45;10.27;;;;;;;11.90;100.00;101365.22;5035318;28;20036;-83
2022/10/30 06:50:33;;;;;;;22.45;11.10;;;;;;;11.72;100.00;101342.78;5050631;28;20039;-83
2022/10/30 06:52:59;;;;;;;22.33;10.82;;;;;;;11.83;100.00;101369.41;5070310;28;20028;-82
2022/10/30 06:55:24;;;;;;;19.40;10.70;;;;;;;11.80;100.00;101369.63;5084919;28;20045;-82
2022/10/30 06:57:54;;;;;;;24.55;10.85;;;;;;;11.72;100.00;101372.97;5086836;28;20051;-82
2022/10/30 07:00:20;;;;;;;24.70;11.38;;;;;;;11.73;100.00;101368.34;5086857;28;20508;-83
2022/10/30 07:02:54;;;;;;;24.50;11.40;;;;;;;11.80;100.00;101377.00;5091411;28;20070;-83
2022/10/30 07:05:20;;;;;;;18.15;10.55;;;;;;;11.86;100.00;101366.41;5102851;28;20464;-82
2022/10/30 07:07:45;;;;;;;27.63;10.45;;;;;;;11.88;100.00;101358.06;5066319;28;20035;-83
2022/10/30 07:10:10;;;;;;;26.40;12.27;;;;;;;12.09;100.00;101352.84;5070363;28;20035;-81
2022/10/30 07:12:36;;;;;;;25.38;12.05;;;;;;;12.09;100.00;101361.94;5083230;28;20039;-83
2022/10/30 07:15:01;;;;;;;23.38;11.18;;;;;;;12.09;100.00;101353.69;5081473;28;20075;-83
2022/10/30 07:17:27;;;;;;;21.05;11.38;;;;;;;12.07;100.00;101352.09;5067715;28;20042;-81
2022/10/30 07:19:53;;;;;;;25.88;11.60;;;;;;;12.04;100.00;101355.06;5086412;28;20527;-82
2022/10/30 07:22:18;;;;;;;21.70;11.60;;;;;;;11.96;100.00;101361.13;5099566;28;20027;-81
2022/10/30 07:24:44;;;;;;;24.73;11.80;;;;;;;12.04;100.00;101358.69;5050881;28;20028;-83
2022/10/30 07:27:09;;;;;;;21.45;11.98;;;;;;;12.06;100.00;101358.56;5081934;28;20027;-82
2022/10/30 07:29:34;;;;;;;30.95;12.23;;;;;;;12.12;100.00;101360.84;5098932;28;20113;-83
2022/10/30 07:32:01;;;;;;;24.08;11.73;;;;;;;12.25;100.00;101361.63;5086183;28;20110;-82
2022/10/30 07:34:26;;;;;;;26.50;12.95;;;;;;;12.36;100.00;101359.91;5083883;28;20051;-82
2022/10/30 07:36:51;;;;;;;25.30;11.48;;;;;;;12.69;100.00;101367.31;5079751;28;20036;-81
2022/10/30 07:39:17;;;;;;;20.25;11.57;;;;;;;12.91;100.00;101369.25;5085415;28;20043;-81
2022/10/30 07:41:42;;;;;;;23.13;10.73;;;;;;;13.02;100.00;101365.63;5071680;28;20028;-82
2022/10/30 07:44:08;;;;;;;20.08;10.65;;;;;;;13.10;100.00;101367.72;5076460;28;20107;-82
2022/10/30 07:46:33;;;;;;;21.13;9.93;;;;;;;13.32;100.00;101362.25;5079824;28;20031;-82
2022/10/30 07:48:59;;;;;;;20.08;10.95;;;;;;;13.65;100.00;101359.56;5058800;28;20035;-81
2022/10/30 07:51:24;;;;;;;18.63;10.77;;;;;;;13.91;100.00;101363.72;5076192;28;20032;-83
2022/10/30 07:53:50;;;;;;;20.77;10.55;;;;;;;14.05;100.00;101368.06;5047332;28;20024;-80
2022/10/30 07:56:15;;;;;;;26.42;11.32;;;;;;;14.04;100.00;101363.56;5086441;28;20480;-79
2022/10/30 07:58:40;;;;;;;28.77;10.18;;;;;;;13.91;100.00;101355.47;5095205;28;20107;-81
2022/10/30 08:01:06;;;;;;;20.30;11.27;;;;;;;14.09;100.00;101366.78;5088065;28;20115;-82
2022/10/30 08:03:31;;;;;;;23.15;10.63;;;;;;;14.37;100.00;101367.16;5099987;28;20036;-82
2022/10/30 08:05:57;;;;;;;23.27;10.35;;;;;;;14.62;100.00;101354.00;5115468;28;20263;-80
2022/10/30 08:08:22;;;;;;;31.13;10.60;;;;;;;14.76;100.00;101364.69;5083685;28;20176;-82
2022/10/30 08:10:48;;;;;;;21.05;9.55;;;;;;;14.81;100.00;101356.88;5061112;28;20042;-82
2022/10/30 08:13:13;;;;;;;15.98;9.05;;;;;;;14.96;100.00;101356.53;5065769;28;20469;-82
2022/10/30 08:15:41;;;;;;;22.13;8.60;;;;;;;15.06;100.00;101365.72;5082390;28;20475;-82
2022/10/30 08:18:06;;;;;;;23.92;9.10;;;;;;;14.96;100.00;101353.78;5078026;28;20035;-81
2022/10/30 08:20:32;;;;;;;19.83;8.65;;;;;;;15.01;100.00;101357.84;5077234;28;20103;-82
2022/10/30 08:22:58;;;;;;;20.17;8.48;;;;;;;15.12;100.00;101358.75;5083785;28;20384;-82
2022/10/30 08:25:26;;;;;;;21.15;8.50;;;;;;;15.15;100.00;101351.09;5123546;28;20035;-81
2022/10/30 08:28:06;;;;;;;25.77;10.18;;;;;;;15.12;100.00;101365.16;5103995;28;20091;-83
2022/10/30 08:30:33;;;;;;;25.60;8.40;;;;;;;15.30;100.00;101357.09;5095967;28;20040;-82
2022/10/30 08:33:01;;;;;;;13.82;8.40;;;;;;;15.37;100.00;101371.22;5085444;28;20043;-81
2022/10/30 08:35:27;;;;;;;17.60;8.18;;;;;;;15.49;100.00;101363.69;5122193;28;20032;-80
2022/10/30 08:38:01;;;;;;;27.08;8.65;;;;;;;15.44;100.00;101347.53;5081008;28;20028;-83
2022/10/30 08:40:27;;;;;;;25.05;8.82;;;;;;;15.53;100.00;101355.00;5102112;28;20050;-82
2022/10/30 08:42:54;;;;;;;24.15;8.60;;;;;;;15.62;100.00;101353.25;5119524;28;20024;-85
2022/10/30 08:45:21;;;;;;;26.80;8.75;;;;;;;15.66;100.00;101351.97;5095479;28;20032;-79
2022/10/30 08:47:47;;;;;;;22.45;9.07;;;;;;;15.79;100.00;101351.75;5094718;28;20755;-81
2022/10/30 08:50:12;;;;;;;25.25;9.35;;;;;;;15.88;100.00;101347.22;5058706;28;20042;-83
2022/10/30 08:52:38;;;;;;;22.38;9.50;;;;;;;16.05;100.00;101356.69;5083392;28;20036;-83
2022/10/30 08:55:04;;;;;;;22.08;8.23;;;;;;;16.03;100.00;101358.72;5066446;28;20530;-80
2022/10/30 08:57:35;;;;;;;26.83;9.70;;;;;;;16.12;100.00;101366.16;5053066;28;20035;-83
2022/10/30 09:00:01;;;;;;;16.15;8.23;;;;;;;16.23;100.00;101365.13;5091824;28;20028;-81
2022/10/30 09:02:27;;;;;;;19.27;9.02;;;;;;;16.31;100.00;101355.06;5065983;28;20096;-82
2022/10/30 09:04:52;;;;;;;23.17;7.47;;;;;;;16.48;100.00;101347.94;5084695;28;20126;-82
2022/10/30 09:07:18;;;;;;;21.38;7.28;;;;;;;16.59;100.00;101346.88;5042114;28;20028;-82
2022/10/30 09:09:43;;;;;;;17.90;7.60;;;;;;;16.79;100.00;101350.50;5066540;28;20024;-81
2022/10/30 09:12:10;;;;;;;14.73;7.00;;;;;;;17.15;100.00;101352.56;5074650;28;20032;-84
2022/10/30 09:14:35;;;;;;;19.25;7.25;;;;;;;17.22;100.00;101348.19;5066264;28;20055;-83
2022/10/30 09:17:01;;;;;;;28.25;7.13;;;;;;;17.34;100.00;101363.53;5082645;28;20100;-83
2022/10/30 09:19:27;;;;;;;20.38;7.30;;;;;;;17.52;100.00;101359.97;5099070;28;20051;-83
2022/10/30 09:22:00;;;;;;;17.88;7.70;;;;;;;17.44;100.00;101366.25;5073656;28;20047;-81
2022/10/30 09:24:25;;;;;;;19.15;8.20;;;;;;;17.43;100.00;101365.41;5057737;28;20036;-81
2022/10/30 09:26:51;;;;;;;25.23;7.97;;;;;;;17.47;100.00;101354.00;5101685;28;20038;-81
2022/10/30 09:29:17;;;;;;;23.65;7.63;;;;;;;17.64;100.00;101355.94;5093102;28;20035;-82
2022/10/30 09:31:42;;;;;;;15.63;8.57;;;;;;;17.63;100.00;101357.84;5068270;28;20031;-81
2022/10/30 09:34:07;;;;;;;23.70;9.02;;;;;;;17.64;100.00;101353.16;5068630;28;20035;-83
2022/10/30 09:36:38;;;;;;;19.60;7.28;;;;;;;17.96;100.00;101351.81;5109055;28;20126;-82
2022/10/30 09:39:04;;;;;;;21.88;6.55;;;;;;;18.13;100.00;101356.47;5094126;28;20034;-81
2022/10/30 09:42:07;;;;;;;20.92;7.13;;;;;;;18.11;100.00;101350.22;5092788;28;20047;-81
2022/10/30 09:45:16;;;;;;;20.90;6.83;;;;;;;17.97;100.00;101350.78;5079558;28;20555;-81
2022/10/30 09:48:08;;;;;;;20.50;6.78;;;;;;;18.14;100.00;101351.81;5087212;28;20047;-82
2022/10/30 09:51:13;;;;;;;22.27;6.90;;;;;;;17.97;100.00;101342.47;5113135;28;20043;-82
2022/10/30 09:54:07;;;;;;;17.15;6.70;;;;;;;18.24;100.00;101341.50;5083580;28;20036;-82
2022/10/30 09:56:45;;;;;;;18.33;6.82;;;;;;;18.42;100.00;101341.50;5075236;28;20059;-81
2022/10/30 09:59:16;;;;;;;25.17;8.05;;;;;;;18.30;100.00;101343.66;5087168;28;20049;-81
2022/10/30 10:02:01;;;;;;;19.90;6.40;;;;;;;18.39;100.00;101352.03;5085343;28;20031;-81
2022/10/30 10:04:47;;;;;;;14.10;6.53;;;;;;;18.68;100.00;101348.97;5091127;28;20085;-81
2022/10/30 10:07:23;;;;;;;16.25;6.00;;;;;;;18.92;100.00;101356.59;5087440;28;20036;-82
2022/10/30 10:09:53;;;;;;;15.50;6.80;;;;;;;19.11;100.00;101358.28;5081022;28;20046;-83
2022/10/30 10:12:30;;;;;;;17.92;6.70;;;;;;;19.18;100.00;101364.91;5083042;28;20036;-82
2022/10/30 10:14:58;;;;;;;13.88;6.20;;;;;;;19.74;100.00;101368.09;5078209;28;20179;-80
2022/10/30 10:17:33;;;;;;;12.98;5.88;;;;;;;19.67;100.00;101383.69;5095747;28;20084;-80
2022/10/30 10:20:00;;;;;;;13.63;6.38;;;;;;;19.50;100.00;101368.88;5098708;28;20031;-81
2022/10/30 10:22:40;;;;;;;20.35;6.38;;;;;;;19.25;100.00;101368.78;5085963;28;20031;-81
2022/10/30 10:25:13;;;;;;;19.02;6.43;;;;;;;19.04;100.00;101365.53;5101943;28;20484;-82
2022/10/30 10:28:15;;;;;;;18.63;6.05;;;;;;;19.01;100.00;101363.94;5085259;28;20387;-81
2022/10/30 10:30:55;;;;;;;13.23;5.27;;;;;;;19.13;100.00;101369.22;5099846;28;20034;-82
2022/10/30 10:33:45;;;;;;;19.92;6.47;;;;;;;19.26;100.00;101356.59;5074983;28;20039;-80
2022/10/30 10:36:17;;;;;;;22.88;6.20;;;;;;;19.57;100.00;101356.03;5084772;28;20638;-81
2022/10/30 10:38:50;;;;;;;18.17;7.03;;;;;;;19.75;100.00;101346.72;5104275;28;20031;-80
2022/10/30 10:41:45;;;;;;;27.13;6.15;;;;;;;19.56;100.00;101346.00;5112998;28;20046;-82
2022/10/30 10:44:26;;;;;;;20.45;6.15;;;;;;;20.29;100.00;101344.41;5085560;28;20388;-82
2022/10/30 10:47:07;;;;;;;17.30;6.30;;;;;;;20.14;100.00;101358.13;5082945;28;20038;-81
2022/10/30 10:50:10;;;;;;;16.27;5.57;;;;;;;20.04;100.00;101351.88;5080958;28;20036;-81
2022/10/30 10:52:38;;;;;;;;;;;;;;;19.99;100.00;101344.03;5077057;28;20036;-82
2022/10/30 10:55:13;;;;;;;25.23;6.40;;;;;;;19.90;100.00;101342.28;5097743;28;20466;-82
2022/10/30 10:57:41;;;;;;;17.77;5.75;;;;;;;19.79;100.00;101337.03;5106221;28;20024;-81
2022/10/30 11:00:16;;;;;;;34.10;6.20;;;;;;;19.72;100.00;101347.06;5083265;28;20050;-83
2022/10/30 11:02:55;;;;;;;13.63;6.40;;;;;;;19.73;100.00;101348.81;5090898;28;20039;-81
2022/10/30 11:05:59;;;;;;;22.85;8.00;;;;;;;19.80;100.00;101350.75;5091449;28;20418;-82
2022/10/30 11:08:29;;;;;;;20.17;7.25;;;;;;;19.68;100.00;101345.66;5091076;28;20031;-81
2022/10/30 11:10:59;;;;;;;21.42;7.88;;;;;;;19.69;100.00;101342.72;5099076;28;20101;-80
2022/10/30 11:13:30;;;;;;;18.33;7.07;;;;;;;19.65;100.00;101333.84;5075112;28;20036;-81
2022/10/30 11:16:03;;;;;;;23.27;7.70;;;;;;;19.57;100.00;101346.84;5083906;28;20027;-81